sensor_id;sensor_type;location;lat;lon;timestamp;pressure;altitude;pressure_sealevel;temperature;humidity
42587;BME280;28216;53.362;-6.288;2022-12-28T00:01:07;100331.69;;;6.96;100.00
42587;BME280;28216;53.362;-6.288;2022-12-28T00:03:33;100334.44;;;6.94;100.00
42587;BME280;28216;53.362;-6.288;2022-12-28T00:05:58;100333.63;;;6.94;100.00
42587;BME280;28216;53.362;-6.288;2022-12-28T00:08:24;100351.19;;;6.92;100.00
42587;BME280;28216;53.362;-6.288;2022-12-28T00:10:49;100354.91;;;6.89;100.00
42587;BME280;28216;53.362;-6.288;2022-12-28T00:13:15;100337.63;;;6.88;100.00
42587;BME280;28216;53.362;-6.288;2022-12-28T00:15:40;100335.19;;;6.87;100.00
42587;BME280;28216;53.362;-6.288;2022-12-28T00:18:06;100339.56;;;6.86;100.00
42587;BME280;28216;53.362;-6.288;2022-12-28T00:20:31;100331.09;;;6.84;100.00
42587;BME280;28216;53.362;-6.288;2022-12-28T00:22:56;100325.06;;;6.84;100.00
42587;BME280;28216;53.362;-6.288;2022-12-28T00:25:22;100324.38;;;6.82;100.00
42587;BME280;28216;53.362;-6.288;2022-12-28T00:27:47;100323.56;;;6.81;100.00
42587;BME280;28216;53.362;-6.288;2022-12-28T00:30:13;100321.09;;;6.80;100.00
42587;BME280;28216;53.362;-6.288;2022-12-28T00:32:38;100328.91;;;6.80;100.00
42587;BME280;28216;53.362;-6.288;2022-12-28T00:35:04;100332.47;;;6.79;100.00
42587;BME280;28216;53.362;-6.288;2022-12-28T00:37:29;100340.31;;;6.79;100.00
42587;BME280;28216;53.362;-6.288;2022-12-28T00:39:57;100329.06;;;6.78;100.00
42587;BME280;28216;53.362;-6.288;2022-12-28T00:42:22;100324.00;;;6.77;100.00
42587;BME280;28216;53.362;-6.288;2022-12-28T00:44:48;100306.88;;;6.74;100.00
42587;BME280;28216;53.362;-6.288;2022-12-28T00:47:13;100309.47;;;6.74;100.00
42587;BME280;28216;53.362;-6.288;2022-12-28T00:49:39;100305.22;;;6.73;100.00
42587;BME280;28216;53.362;-6.288;2022-12-28T00:52:04;100292.50;;;6.70;100.00
42587;BME280;28216;53.362;-6.288;2022-12-28T00:54:30;100290.00;;;6.68;100.00
42587;BME280;28216;53.362;-6.288;2022-12-28T00:56:55;100294.53;;;6.66;100.00
42587;BME280;28216;53.362;-6.288;2022-12-28T00:59:21;100291.25;;;6.64;100.00
42587;BME280;28216;53.362;-6.288;2022-12-28T01:01:46;100279.88;;;6.65;100.00
42587;BME280;28216;53.362;-6.288;2022-12-28T01:04:11;100266.31;;;6.62;100.00
42587;BME280;28216;53.362;-6.288;2022-12-28T01:06:37;100252.63;;;6.60;100.00
42587;BME280;28216;53.362;-6.288;2022-12-28T01:09:04;100244.94;;;6.58;100.00
42587;BME280;28216;53.362;-6.288;2022-12-28T01:11:30;100239.22;;;6.55;100.00
42587;BME280;28216;53.362;-6.288;2022-12-28T01:13:58;100228.94;;;6.53;100.00
42587;BME280;28216;53.362;-6.288;2022-12-28T01:16:27;100221.28;;;6.52;100.00
42587;BME280;28216;53.362;-6.288;2022-12-28T01:18:56;100211.81;;;6.51;100.00
42587;BME280;28216;53.362;-6.288;2022-12-28T01:21:24;100203.88;;;6.52;100.00
42587;BME280;28216;53.362;-6.288;2022-12-28T01:23:53;100200.44;;;6.52;100.00
42587;BME280;28216;53.362;-6.288;2022-12-28T01:26:19;100193.31;;;6.54;100.00
42587;BME280;28216;53.362;-6.288;2022-12-28T01:28:44;100197.53;;;6.55;100.00
42587;BME280;28216;53.362;-6.288;2022-12-28T01:31:15;100208.63;;;6.57;100.00
42587;BME280;28216;53.362;-6.288;2022-12-28T01:33:41;100208.78;;;6.55;100.00
42587;BME280;28216;53.362;-6.288;2022-12-28T01:36:12;100200.16;;;6.55;100.00
42587;BME280;28216;53.362;-6.288;2022-12-28T01:38:38;100171.50;;;6.55;100.00
42587;BME280;28216;53.362;-6.288;2022-12-28T01:41:12;100165.47;;;6.54;100.00
42587;BME280;28216;53.362;-6.288;2022-12-28T01:43:42;100145.75;;;6.52;100.00
42587;BME280;28216;53.362;-6.288;2022-12-28T01:46:09;100142.47;;;6.50;100.00
42587;BME280;28216;53.362;-6.288;2022-12-28T01:48:45;100139.06;;;6.49;100.00
42587;BME280;28216;53.362;-6.288;2022-12-28T01:51:12;100142.78;;;6.47;100.00
42587;BME280;28216;53.362;-6.288;2022-12-28T01:53:38;100143.75;;;6.46;100.00
42587;BME280;28216;53.362;-6.288;2022-12-28T01:56:04;100150.06;;;6.43;100.00
42587;BME280;28216;53.362;-6.288;2022-12-28T01:58:31;100150.22;;;6.42;100.00
42587;BME280;28216;53.362;-6.288;2022-12-28T02:00:58;100150.06;;;6.43;100.00
42587;BME280;28216;53.362;-6.288;2022-12-28T02:03:28;100142.91;;;6.45;100.00
42587;BME280;28216;53.362;-6.288;2022-12-28T02:05:58;100143.59;;;6.47;100.00
42587;BME280;28216;53.362;-6.288;2022-12-28T02:11:13;100134.38;;;6.53;100.00
42587;BME280;28216;53.362;-6.288;2022-12-28T02:13:42;100134.22;;;6.54;100.00
42587;BME280;28216;53.362;-6.288;2022-12-28T02:16:10;100129.81;;;6.55;100.00
42587;BME280;28216;53.362;-6.288;2022-12-28T02:18:35;100122.84;;;6.55;100.00
42587;BME280;28216;53.362;-6.288;2022-12-28T02:21:19;100126.94;;;6.58;100.00
42587;BME280;28216;53.362;-6.288;2022-12-28T02:24:10;100122.53;;;6.58;100.00
42587;BME280;28216;53.362;-6.288;2022-12-28T02:27:01;100120.44;;;6.62;100.00
42587;BME280;28216;53.362;-6.288;2022-12-28T02:29:39;100119.47;;;6.63;100.00
42587;BME280;28216;53.362;-6.288;2022-12-28T02:35:16;100120.97;;;6.65;100.00
42587;BME280;28216;53.362;-6.288;2022-12-28T02:37:47;100118.22;;;6.67;100.00
42587;BME280;28216;53.362;-6.288;2022-12-28T02:42:39;100122.47;;;6.68;100.00
42587;BME280;28216;53.362;-6.288;2022-12-28T02:45:07;100115.59;;;6.67;100.00
42587;BME280;28216;53.362;-6.288;2022-12-28T02:47:51;100113.72;;;6.69;100.00
42587;BME280;28216;53.362;-6.288;2022-12-28T02:50:55;100107.13;;;6.65;100.00
42587;BME280;28216;53.362;-6.288;2022-12-28T02:53:44;100103.69;;;6.64;100.00
42587;BME280;28216;53.362;-6.288;2022-12-28T02:56:37;100097.00;;;6.62;100.00
42587;BME280;28216;53.362;-6.288;2022-12-28T03:02:13;100090.84;;;6.63;100.00
42587;BME280;28216;53.362;-6.288;2022-12-28T03:05:09;100092.16;;;6.67;100.00
42587;BME280;28216;53.362;-6.288;2022-12-28T03:07:53;100076.53;;;6.67;100.00
42587;BME280;28216;53.362;-6.288;2022-12-28T03:11:04;100065.03;;;6.69;100.00
42587;BME280;28216;53.362;-6.288;2022-12-28T03:13:58;100058.03;;;6.70;100.00
42587;BME280;28216;53.362;-6.288;2022-12-28T03:16:41;100044.69;;;6.73;100.00
42587;BME280;28216;53.362;-6.288;2022-12-28T03:19:46;100028.09;;;6.74;100.00
42587;BME280;28216;53.362;-6.288;2022-12-28T03:22:33;100025.34;;;6.76;100.00
42587;BME280;28216;53.362;-6.288;2022-12-28T03:25:20;100024.22;;;6.78;100.00
42587;BME280;28216;53.362;-6.288;2022-12-28T03:28:06;100008.59;;;6.78;100.00
42587;BME280;28216;53.362;-6.288;2022-12-28T03:30:52;99994.75;;;6.78;100.00
42587;BME280;28216;53.362;-6.288;2022-12-28T03:33:36;99998.97;;;6.79;100.00
42587;BME280;28216;53.362;-6.288;2022-12-28T03:36:29;99991.84;;;6.81;100.00
42587;BME280;28216;53.362;-6.288;2022-12-28T03:42:26;99977.53;;;6.85;100.00
42587;BME280;28216;53.362;-6.288;2022-12-28T03:45:18;99966.44;;;6.83;100.00
42587;BME280;28216;53.362;-6.288;2022-12-28T03:47:46;99958.78;;;6.81;100.00
42587;BME280;28216;53.362;-6.288;2022-12-28T03:50:13;99950.00;;;6.82;100.00
42587;BME280;28216;53.362;-6.288;2022-12-28T03:52:39;99951.13;;;6.80;100.00
42587;BME280;28216;53.362;-6.288;2022-12-28T03:55:05;99947.84;;;6.78;100.00
42587;BME280;28216;53.362;-6.288;2022-12-28T03:57:31;99939.53;;;6.74;100.00
42587;BME280;28216;53.362;-6.288;2022-12-28T03:59:56;99920.63;;;6.72;100.00
42587;BME280;28216;53.362;-6.288;2022-12-28T04:02:22;99911.34;;;6.69;100.00
42587;BME280;28216;53.362;-6.288;2022-12-28T04:04:47;99904.78;;;6.65;100.00
42587;BME280;28216;53.362;-6.288;2022-12-28T04:07:12;99893.03;;;6.61;100.00
42587;BME280;28216;53.362;-6.288;2022-12-28T04:09:38;99877.88;;;6.57;100.00
42587;BME280;28216;53.362;-6.288;2022-12-28T04:12:04;99877.34;;;6.53;100.00
42587;BME280;28216;53.362;-6.288;2022-12-28T04:14:29;99872.78;;;6.47;100.00
42587;BME280;28216;53.362;-6.288;2022-12-28T04:16:55;99876.81;;;6.42;100.00
42587;BME280;28216;53.362;-6.288;2022-12-28T04:19:20;99870.59;;;6.34;100.00
42587;BME280;28216;53.362;-6.288;2022-12-28T04:21:45;99857.22;;;6.29;100.00
42587;BME280;28216;53.362;-6.288;2022-12-28T04:24:11;99860.44;;;6.23;100.00
42587;BME280;28216;53.362;-6.288;2022-12-28T04:26:36;99849.66;;;6.18;100.00
42587;BME280;28216;53.362;-6.288;2022-12-28T04:29:02;99845.88;;;6.13;100.00
42587;BME280;28216;53.362;-6.288;2022-12-28T04:31:28;99822.25;;;6.06;100.00
42587;BME280;28216;53.362;-6.288;2022-12-28T04:33:57;99824.50;;;6.01;100.00
42587;BME280;28216;53.362;-6.288;2022-12-28T04:36:23;99824.16;;;5.96;100.00
42587;BME280;28216;53.362;-6.288;2022-12-28T04:38:49;99814.00;;;5.93;100.00
42587;BME280;28216;53.362;-6.288;2022-12-28T04:41:14;99799.66;;;5.89;100.00
42587;BME280;28216;53.362;-6.288;2022-12-28T04:43:40;99787.09;;;5.84;100.00
42587;BME280;28216;53.362;-6.288;2022-12-28T04:46:09;99774.09;;;5.84;100.00
42587;BME280;28216;53.362;-6.288;2022-12-28T04:48:35;99770.97;;;5.81;100.00
42587;BME280;28216;53.362;-6.288;2022-12-28T04:53:40;99764.28;;;5.78;100.00
42587;BME280;28216;53.362;-6.288;2022-12-28T04:56:07;99759.09;;;5.78;100.00
42587;BME280;28216;53.362;-6.288;2022-12-28T04:58:34;99743.50;;;5.78;100.00
42587;BME280;28216;53.362;-6.288;2022-12-28T05:01:11;99727.56;;;5.81;100.00
42587;BME280;28216;53.362;-6.288;2022-12-28T05:03:38;99725.63;;;5.83;100.00
42587;BME280;28216;53.362;-6.288;2022-12-28T05:06:07;99721.47;;;5.90;100.00
42587;BME280;28216;53.362;-6.288;2022-12-28T05:08:34;99711.97;;;5.99;100.00
42587;BME280;28216;53.362;-6.288;2022-12-28T05:11:05;99704.84;;;6.09;100.00
42587;BME280;28216;53.362;-6.288;2022-12-28T05:13:31;99705.53;;;6.19;100.00
42587;BME280;28216;53.362;-6.288;2022-12-28T05:16:00;99695.97;;;6.28;100.00
42587;BME280;28216;53.362;-6.288;2022-12-28T05:18:27;99692.41;;;6.37;100.00
42587;BME280;28216;53.362;-6.288;2022-12-28T05:21:02;99676.00;;;6.45;100.00
42587;BME280;28216;53.362;-6.288;2022-12-28T05:23:28;99689.03;;;6.53;100.00
42587;BME280;28216;53.362;-6.288;2022-12-28T05:25:54;99683.03;;;6.60;100.00
42587;BME280;28216;53.362;-6.288;2022-12-28T05:28:20;99665.94;;;6.66;100.00
42587;BME280;28216;53.362;-6.288;2022-12-28T05:30:45;99643.84;;;6.70;100.00
42587;BME280;28216;53.362;-6.288;2022-12-28T05:33:11;99643.19;;;6.76;100.00
42587;BME280;28216;53.362;-6.288;2022-12-28T05:35:36;99632.78;;;6.76;100.00
42587;BME280;28216;53.362;-6.288;2022-12-28T05:38:02;99625.94;;;6.83;100.00
42587;BME280;28216;53.362;-6.288;2022-12-28T05:40:28;99619.25;;;6.89;100.00
42587;BME280;28216;53.362;-6.288;2022-12-28T05:42:53;99610.78;;;6.95;100.00
42587;BME280;28216;53.362;-6.288;2022-12-28T05:45:19;99602.97;;;6.95;100.00
42587;BME280;28216;53.362;-6.288;2022-12-28T05:47:44;99600.06;;;6.90;100.00
42587;BME280;28216;53.362;-6.288;2022-12-28T05:50:10;99597.13;;;6.93;100.00
42587;BME280;28216;53.362;-6.288;2022-12-28T05:52:35;99581.97;;;6.88;100.00
42587;BME280;28216;53.362;-6.288;2022-12-28T05:55:01;99578.22;;;6.83;100.00
42587;BME280;28216;53.362;-6.288;2022-12-28T05:57:27;99565.38;;;6.73;100.00
42587;BME280;28216;53.362;-6.288;2022-12-28T05:59:52;99558.03;;;6.68;100.00
42587;BME280;28216;53.362;-6.288;2022-12-28T06:02:17;99550.22;;;6.60;100.00
42587;BME280;28216;53.362;-6.288;2022-12-28T06:04:43;99543.38;;;6.59;100.00
42587;BME280;28216;53.362;-6.288;2022-12-28T06:07:08;99521.41;;;6.54;100.00
42587;BME280;28216;53.362;-6.288;2022-12-28T06:09:34;99513.75;;;6.52;100.00
42587;BME280;28216;53.362;-6.288;2022-12-28T06:11:59;99495.38;;;6.54;100.00
42587;BME280;28216;53.362;-6.288;2022-12-28T06:14:25;99486.91;;;6.52;100.00
42587;BME280;28216;53.362;-6.288;2022-12-28T06:16:50;99492.94;;;6.52;100.00
42587;BME280;28216;53.362;-6.288;2022-12-28T06:19:16;99487.72;;;6.52;100.00
42587;BME280;28216;53.362;-6.288;2022-12-28T06:21:43;99472.09;;;6.52;100.00
42587;BME280;28216;53.362;-6.288;2022-12-28T06:24:09;99459.41;;;6.49;100.00
42587;BME280;28216;53.362;-6.288;2022-12-28T06:26:37;99456.66;;;6.43;100.00
42587;BME280;28216;53.362;-6.288;2022-12-28T06:29:03;99445.75;;;6.39;100.00
42587;BME280;28216;53.362;-6.288;2022-12-28T06:31:34;99440.88;;;6.36;100.00
42587;BME280;28216;53.362;-6.288;2022-12-28T06:34:01;99419.72;;;6.39;100.00
42587;BME280;28216;53.362;-6.288;2022-12-28T06:36:39;99413.06;;;6.36;100.00
42587;BME280;28216;53.362;-6.288;2022-12-28T06:39:07;99395.63;;;6.37;100.00
42587;BME280;28216;53.362;-6.288;2022-12-28T06:41:33;99382.28;;;6.40;100.00
42587;BME280;28216;53.362;-6.288;2022-12-28T06:43:58;99365.22;;;6.37;100.00
42587;BME280;28216;53.362;-6.288;2022-12-28T06:46:26;99358.22;;;6.38;100.00
42587;BME280;28216;53.362;-6.288;2022-12-28T06:48:52;99343.75;;;6.35;100.00
42587;BME280;28216;53.362;-6.288;2022-12-28T06:51:20;99333.16;;;6.37;100.00
42587;BME280;28216;53.362;-6.288;2022-12-28T06:53:47;99335.13;;;6.35;100.00
42587;BME280;28216;53.362;-6.288;2022-12-28T06:56:18;99317.88;;;6.34;100.00
42587;BME280;28216;53.362;-6.288;2022-12-28T06:58:46;99309.44;;;6.32;100.00
42587;BME280;28216;53.362;-6.288;2022-12-28T07:01:12;99297.06;;;6.34;100.00
42587;BME280;28216;53.362;-6.288;2022-12-28T07:03:38;99285.66;;;6.35;100.00
42587;BME280;28216;53.362;-6.288;2022-12-28T07:06:04;99282.25;;;6.34;100.00
42587;BME280;28216;53.362;-6.288;2022-12-28T07:08:31;99262.06;;;6.36;100.00
42587;BME280;28216;53.362;-6.288;2022-12-28T07:11:07;99255.72;;;6.39;100.00
42587;BME280;28216;53.362;-6.288;2022-12-28T07:13:33;99247.22;;;6.45;100.00
42587;BME280;28216;53.362;-6.288;2022-12-28T07:16:11;99238.09;;;6.49;100.00
42587;BME280;28216;53.362;-6.288;2022-12-28T07:18:37;99218.59;;;6.45;100.00
42587;BME280;28216;53.362;-6.288;2022-12-28T07:21:05;99204.59;;;6.46;100.00
42587;BME280;28216;53.362;-6.288;2022-12-28T07:23:31;99201.63;;;6.49;100.00
42587;BME280;28216;53.362;-6.288;2022-12-28T07:26:06;99184.22;;;6.50;100.00
42587;BME280;28216;53.362;-6.288;2022-12-28T07:28:32;99178.22;;;6.49;100.00
42587;BME280;28216;53.362;-6.288;2022-12-28T07:31:07;99164.22;;;6.50;100.00
42587;BME280;28216;53.362;-6.288;2022-12-28T07:33:34;99159.81;;;6.51;100.00
42587;BME280;28216;53.362;-6.288;2022-12-28T07:36:00;99152.81;;;6.51;100.00
42587;BME280;28216;53.362;-6.288;2022-12-28T07:38:26;99134.88;;;6.56;100.00
42587;BME280;28216;53.362;-6.288;2022-12-28T07:40:51;99135.00;;;6.63;100.00
42587;BME280;28216;53.362;-6.288;2022-12-28T07:43:17;99121.31;;;6.69;100.00
42587;BME280;28216;53.362;-6.288;2022-12-28T07:45:42;99111.34;;;6.73;100.00
42587;BME280;28216;53.362;-6.288;2022-12-28T07:48:08;99106.59;;;6.76;100.00
42587;BME280;28216;53.362;-6.288;2022-12-28T07:50:33;99095.84;;;6.79;100.00
42587;BME280;28216;53.362;-6.288;2022-12-28T07:53:00;99089.47;;;6.82;100.00
42587;BME280;28216;53.362;-6.288;2022-12-28T07:55:25;99083.44;;;6.81;100.00
42587;BME280;28216;53.362;-6.288;2022-12-28T07:57:54;99075.44;;;6.83;100.00
42587;BME280;28216;53.362;-6.288;2022-12-28T08:00:19;99066.66;;;6.84;100.00
42587;BME280;28216;53.362;-6.288;2022-12-28T08:02:48;99054.25;;;6.86;100.00
42587;BME280;28216;53.362;-6.288;2022-12-28T08:05:13;99043.03;;;6.85;100.00
42587;BME280;28216;53.362;-6.288;2022-12-28T08:07:39;99021.38;;;6.85;100.00
42587;BME280;28216;53.362;-6.288;2022-12-28T08:10:04;99002.50;;;6.83;100.00
42587;BME280;28216;53.362;-6.288;2022-12-28T08:12:30;99006.91;;;6.82;100.00
42587;BME280;28216;53.362;-6.288;2022-12-28T08:14:55;98995.31;;;6.85;100.00
42587;BME280;28216;53.362;-6.288;2022-12-28T08:17:25;98981.13;;;6.87;100.00
42587;BME280;28216;53.362;-6.288;2022-12-28T08:19:50;98978.97;;;6.91;100.00
42587;BME280;28216;53.362;-6.288;2022-12-28T08:22:16;98954.72;;;6.90;100.00
42587;BME280;28216;53.362;-6.288;2022-12-28T08:24:41;98946.09;;;6.90;100.00
42587;BME280;28216;53.362;-6.288;2022-12-28T08:27:06;98943.50;;;6.90;100.00
42587;BME280;28216;53.362;-6.288;2022-12-28T08:29:32;98924.28;;;6.91;100.00
42587;BME280;28216;53.362;-6.288;2022-12-28T08:31:57;98934.34;;;6.94;100.00
42587;BME280;28216;53.362;-6.288;2022-12-28T08:34:23;98927.59;;;6.99;100.00
42587;BME280;28216;53.362;-6.288;2022-12-28T08:36:52;98913.84;;;7.06;100.00
42587;BME280;28216;53.362;-6.288;2022-12-28T08:39:17;98890.66;;;7.11;100.00
42587;BME280;28216;53.362;-6.288;2022-12-28T08:41:43;98880.47;;;7.16;100.00
42587;BME280;28216;53.362;-6.288;2022-12-28T08:44:08;98869.88;;;7.17;100.00
42587;BME280;28216;53.362;-6.288;2022-12-28T08:46:34;98868.88;;;7.18;100.00
42587;BME280;28216;53.362;-6.288;2022-12-28T08:49:00;98866.47;;;7.17;100.00
42587;BME280;28216;53.362;-6.288;2022-12-28T08:51:31;98846.41;;;7.17;100.00
42587;BME280;28216;53.362;-6.288;2022-12-28T08:53:57;98851.88;;;7.22;100.00
42587;BME280;28216;53.362;-6.288;2022-12-28T08:56:28;98836.88;;;7.24;100.00
42587;BME280;28216;53.362;-6.288;2022-12-28T08:58:54;98821.84;;;7.26;100.00
42587;BME280;28216;53.362;-6.288;2022-12-28T09:01:26;98808.25;;;7.31;100.00
42587;BME280;28216;53.362;-6.288;2022-12-28T09:03:53;98796.84;;;7.32;100.00
42587;BME280;28216;53.362;-6.288;2022-12-28T09:06:43;98794.66;;;7.36;100.00
42587;BME280;28216;53.362;-6.288;2022-12-28T09:09:10;98794.66;;;7.36;100.00
42587;BME280;28216;53.362;-6.288;2022-12-28T09:11:37;98788.47;;;7.37;100.00
42587;BME280;28216;53.362;-6.288;2022-12-28T09:14:05;98784.84;;;7.38;100.00
42587;BME280;28216;53.362;-6.288;2022-12-28T09:16:31;98779.47;;;7.39;100.00
42587;BME280;28216;53.362;-6.288;2022-12-28T09:18:59;98770.03;;;7.38;100.00
42587;BME280;28216;53.362;-6.288;2022-12-28T09:21:28;98767.22;;;7.40;100.00
42587;BME280;28216;53.362;-6.288;2022-12-28T09:23:54;98752.59;;;7.39;100.00
42587;BME280;28216;53.362;-6.288;2022-12-28T09:26:23;98742.16;;;7.39;100.00
42587;BME280;28216;53.362;-6.288;2022-12-28T09:28:51;98742.78;;;7.41;100.00
42587;BME280;28216;53.362;-6.288;2022-12-28T09:31:18;98729.53;;;7.42;100.00
42587;BME280;28216;53.362;-6.288;2022-12-28T09:33:44;98720.13;;;7.41;100.00
42587;BME280;28216;53.362;-6.288;2022-12-28T09:36:46;98714.56;;;7.44;100.00
42587;BME280;28216;53.362;-6.288;2022-12-28T09:39:17;98697.53;;;7.48;100.00
42587;BME280;28216;53.362;-6.288;2022-12-28T09:42:10;98697.16;;;7.51;100.00
42587;BME280;28216;53.362;-6.288;2022-12-28T09:44:59;98676.94;;;7.60;100.00
42587;BME280;28216;53.362;-6.288;2022-12-28T09:52:30;98650.53;;;7.70;100.00
42587;BME280;28216;53.362;-6.288;2022-12-28T09:55:09;98648.16;;;7.75;100.00
42587;BME280;28216;53.362;-6.288;2022-12-28T09:57:38;98639.13;;;7.77;100.00
42587;BME280;28216;53.362;-6.288;2022-12-28T10:00:06;98634.13;;;7.82;100.00
42587;BME280;28216;53.362;-6.288;2022-12-28T10:02:35;98621.72;;;7.84;100.00
42587;BME280;28216;53.362;-6.288;2022-12-28T10:05:03;98613.50;;;7.87;100.00
42587;BME280;28216;53.362;-6.288;2022-12-28T10:07:28;98592.22;;;7.90;100.00
42587;BME280;28216;53.362;-6.288;2022-12-28T10:09:54;98592.66;;;7.94;100.00
42587;BME280;28216;53.362;-6.288;2022-12-28T10:12:21;98580.81;;;7.98;100.00
42587;BME280;28216;53.362;-6.288;2022-12-28T10:14:48;98577.63;;;8.03;100.00
42587;BME280;28216;53.362;-6.288;2022-12-28T10:17:15;98582.28;;;8.14;100.00
42587;BME280;28216;53.362;-6.288;2022-12-28T10:19:45;98575.91;;;8.23;100.00
42587;BME280;28216;53.362;-6.288;2022-12-28T10:22:15;98563.91;;;8.35;100.00
42587;BME280;28216;53.362;-6.288;2022-12-28T10:24:43;98559.28;;;8.44;100.00
42587;BME280;28216;53.362;-6.288;2022-12-28T10:27:28;98550.88;;;8.48;100.00
42587;BME280;28216;53.362;-6.288;2022-12-28T10:29:54;98545.03;;;8.53;100.00
42587;BME280;28216;53.362;-6.288;2022-12-28T10:32:20;98539.81;;;8.53;100.00
42587;BME280;28216;53.362;-6.288;2022-12-28T10:37:24;98520.31;;;8.55;100.00
42587;BME280;28216;53.362;-6.288;2022-12-28T10:40:02;98517.50;;;8.57;100.00
42587;BME280;28216;53.362;-6.288;2022-12-28T10:42:38;98506.06;;;8.58;100.00
42587;BME280;28216;53.362;-6.288;2022-12-28T10:45:13;98504.66;;;8.62;100.00
42587;BME280;28216;53.362;-6.288;2022-12-28T10:47:43;98507.06;;;8.64;100.00
42587;BME280;28216;53.362;-6.288;2022-12-28T10:50:42;98510.88;;;8.61;100.00
42587;BME280;28216;53.362;-6.288;2022-12-28T10:58:43;98486.97;;;8.64;100.00
42587;BME280;28216;53.362;-6.288;2022-12-28T11:03:40;98462.44;;;8.72;100.00
42587;BME280;28216;53.362;-6.288;2022-12-28T11:06:17;98456.59;;;8.76;100.00
42587;BME280;28216;53.362;-6.288;2022-12-28T11:08:45;98453.78;;;8.84;100.00
42587;BME280;28216;53.362;-6.288;2022-12-28T11:11:26;98428.84;;;8.95;100.00
42587;BME280;28216;53.362;-6.288;2022-12-28T11:14:22;98433.25;;;9.01;100.00
42587;BME280;28216;53.362;-6.288;2022-12-28T11:16:49;98422.38;;;9.11;100.00
42587;BME280;28216;53.362;-6.288;2022-12-28T11:19:15;98424.16;;;9.17;100.00
42587;BME280;28216;53.362;-6.288;2022-12-28T11:21:50;98418.31;;;9.21;100.00
42587;BME280;28216;53.362;-6.288;2022-12-28T11:24:17;98405.41;;;9.27;100.00
42587;BME280;28216;53.362;-6.288;2022-12-28T11:26:46;98403.78;;;9.32;100.00
42587;BME280;28216;53.362;-6.288;2022-12-28T11:29:14;98397.91;;;9.37;100.00
42587;BME280;28216;53.362;-6.288;2022-12-28T11:32:02;98404.34;;;9.41;100.00
42587;BME280;28216;53.362;-6.288;2022-12-28T11:34:30;98393.84;;;9.47;100.00
42587;BME280;28216;53.362;-6.288;2022-12-28T11:36:56;98389.59;;;9.53;100.00
42587;BME280;28216;53.362;-6.288;2022-12-28T11:41:54;98366.97;;;9.65;100.00
42587;BME280;28216;53.362;-6.288;2022-12-28T11:49:42;98355.59;;;9.84;100.00
42587;BME280;28216;53.362;-6.288;2022-12-28T11:54:51;98348.50;;;9.92;100.00
42587;BME280;28216;53.362;-6.288;2022-12-28T11:57:40;98342.22;;;9.93;100.00
42587;BME280;28216;53.362;-6.288;2022-12-28T12:03:04;98354.69;;;9.97;100.00
42587;BME280;28216;53.362;-6.288;2022-12-28T12:10:37;98342.34;;;10.04;100.00
42587;BME280;28216;53.362;-6.288;2022-12-28T12:15:48;98324.75;;;10.11;100.00
42587;BME280;28216;53.362;-6.288;2022-12-28T12:18:24;98327.38;;;10.11;100.00
42587;BME280;28216;53.362;-6.288;2022-12-28T12:23:27;98317.84;;;10.17;100.00
42587;BME280;28216;53.362;-6.288;2022-12-28T12:25:55;98321.06;;;10.19;100.00
42587;BME280;28216;53.362;-6.288;2022-12-28T12:28:49;98332.16;;;10.21;100.00
42587;BME280;28216;53.362;-6.288;2022-12-28T12:31:34;98337.38;;;10.21;100.00
42587;BME280;28216;53.362;-6.288;2022-12-28T12:34:13;98324.06;;;10.23;100.00
42587;BME280;28216;53.362;-6.288;2022-12-28T12:36:54;98322.03;;;10.25;100.00
42587;BME280;28216;53.362;-6.288;2022-12-28T12:44:56;98335.59;;;10.15;100.00
42587;BME280;28216;53.362;-6.288;2022-12-28T12:47:59;98336.19;;;10.17;100.00
42587;BME280;28216;53.362;-6.288;2022-12-28T12:53:08;98335.34;;;10.23;100.00
42587;BME280;28216;53.362;-6.288;2022-12-28T12:56:10;98335.72;;;10.27;100.00
42587;BME280;28216;53.362;-6.288;2022-12-28T13:03:45;98329.91;;;10.25;100.00
42587;BME280;28216;53.362;-6.288;2022-12-28T13:06:17;98335.34;;;10.23;100.00
42587;BME280;28216;53.362;-6.288;2022-12-28T13:08:58;98319.06;;;10.21;100.00
42587;BME280;28216;53.362;-6.288;2022-12-28T13:11:25;98321.47;;;10.23;100.00
42587;BME280;28216;53.362;-6.288;2022-12-28T13:13:52;98317.00;;;10.23;100.00
42587;BME280;28216;53.362;-6.288;2022-12-28T13:16:21;98315.19;;;10.24;100.00
42587;BME280;28216;53.362;-6.288;2022-12-28T13:21:19;98303.34;;;10.21;100.00
42587;BME280;28216;53.362;-6.288;2022-12-28T13:23:45;98298.09;;;10.21;100.00
42587;BME280;28216;53.362;-6.288;2022-12-28T13:26:11;98295.88;;;10.18;100.00
42587;BME280;28216;53.362;-6.288;2022-12-28T13:28:49;98294.88;;;10.19;100.00
42587;BME280;28216;53.362;-6.288;2022-12-28T13:31:22;98290.88;;;10.16;100.00
42587;BME280;28216;53.362;-6.288;2022-12-28T13:33:57;98286.88;;;10.14;100.00
42587;BME280;28216;53.362;-6.288;2022-12-28T13:36:23;98279.44;;;10.11;100.00
42587;BME280;28216;53.362;-6.288;2022-12-28T13:39:10;98282.28;;;10.09;100.00
42587;BME280;28216;53.362;-6.288;2022-12-28T13:41:37;98290.34;;;10.08;100.00
42587;BME280;28216;53.362;-6.288;2022-12-28T13:44:14;98279.50;;;10.04;100.00
42587;BME280;28216;53.362;-6.288;2022-12-28T13:46:47;98271.28;;;10.01;100.00
42587;BME280;28216;53.362;-6.288;2022-12-28T13:49:15;98273.16;;;9.94;100.00
42587;BME280;28216;53.362;-6.288;2022-12-28T13:51:41;98272.84;;;9.83;100.00
42587;BME280;28216;53.362;-6.288;2022-12-28T13:54:08;98261.66;;;9.76;100.00
42587;BME280;28216;53.362;-6.288;2022-12-28T13:56:36;98258.50;;;9.68;100.00
42587;BME280;28216;53.362;-6.288;2022-12-28T13:59:10;98246.47;;;9.60;100.00
42587;BME280;28216;53.362;-6.288;2022-12-28T14:01:42;98244.91;;;9.52;100.00
42587;BME280;28216;53.362;-6.288;2022-12-28T14:04:13;98251.81;;;9.47;100.00
42587;BME280;28216;53.362;-6.288;2022-12-28T14:06:40;98239.56;;;9.41;100.00
42587;BME280;28216;53.362;-6.288;2022-12-28T14:09:09;98239.41;;;9.36;100.00
42587;BME280;28216;53.362;-6.288;2022-12-28T14:11:35;98235.41;;;9.33;100.00
42587;BME280;28216;53.362;-6.288;2022-12-28T14:14:02;98234.22;;;9.29;100.00